Time;durP1;ratioP1;P1;durP2;ratioP2;P2;SDS_P1;SDS_P2;PMS_P1;PMS_P2;Temp;Humidity;BMP_temperature;BMP_pressure;BME280_temperature;BME280_humidity;BME280_pressure;Samples;Min_cycle;Max_cycle;Signal;HPM_P1;HPM_P2
2022/12/12 00:01:18;;;;;;;30.83;26.20;;;3.60;99.20;;;;;;10438181;28;20212;-81
2022/12/12 00:06:21;;;;;;;34.90;28.60;;;3.50;98.70;;;;;;10439152;28;20296;-80
2022/12/12 00:11:26;;;;;;;29.73;24.60;;;3.40;99.30;;;;;;10438099;28;20224;-80
2022/12/12 00:16:28;;;;;;;28.90;23.37;;;3.40;99.10;;;;;;10438990;28;20247;-81
2022/12/12 00:21:30;;;;;;;27.97;23.97;;;3.40;99.60;;;;;;10445803;28;20220;-80
2022/12/12 00:26:35;;;;;;;39.93;31.90;;;3.40;99.30;;;;;;10425257;28;20221;-80
2022/12/12 00:31:37;;;;;;;29.50;24.90;;;3.40;99.40;;;;;;10445136;28;20606;-81
2022/12/12 00:36:39;;;;;;;29.97;24.30;;;3.40;99.50;;;;;;10439053;28;20253;-81
2022/12/12 00:41:43;;;;;;;27.50;24.10;;;3.40;98.70;;;;;;10446618;28;20253;-81
2022/12/12 00:46:45;;;;;;;27.17;23.47;;;3.30;98.80;;;;;;10437530;28;20263;-79
2022/12/12 00:51:47;;;;;;;26.83;23.87;;;3.30;99.40;;;;;;10433258;28;20733;-80
2022/12/12 00:56:50;;;;;;;24.70;22.00;;;3.30;99.50;;;;;;10441994;28;20646;-80
2022/12/12 01:01:56;;;;;;;25.43;22.23;;;3.20;98.60;;;;;;10441585;28;20702;-80
2022/12/12 01:06:58;;;;;;;25.13;21.67;;;3.20;98.50;;;;;;10436008;28;20780;-80
2022/12/12 01:12:01;;;;;;;24.60;21.40;;;3.10;98.20;;;;;;10447000;28;20226;-80
2022/12/12 01:17:04;;;;;;;25.50;21.30;;;3.00;98.80;;;;;;10441584;28;20208;-80
2022/12/12 01:22:06;;;;;;;23.40;20.87;;;3.00;98.70;;;;;;10426758;28;20243;-84
2022/12/12 01:27:12;;;;;;;22.53;20.13;;;2.90;98.80;;;;;;10503533;28;20235;-84
2022/12/12 01:32:14;;;;;;;21.20;18.97;;;2.90;99.00;;;;;;10421440;28;20214;-84
2022/12/12 01:37:19;;;;;;;20.17;18.00;;;2.80;98.50;;;;;;10485338;28;20307;-84
2022/12/12 01:42:23;;;;;;;20.20;18.10;;;2.80;98.50;;;;;;10508614;28;20570;-82
2022/12/12 01:47:25;;;;;;;19.00;16.47;;;2.70;98.80;;;;;;10466405;28;20401;-84
2022/12/12 01:52:31;;;;;;;19.30;17.27;;;2.70;98.30;;;;;;10445950;28;20235;-82
2022/12/12 01:57:38;;;;;;;17.87;16.00;;;2.60;98.20;;;;;;10455769;28;20231;-82
2022/12/12 02:02:45;;;;;;;17.77;15.87;;;2.50;98.50;;;;;;10490663;28;20783;-83
2022/12/12 02:07:47;;;;;;;18.67;16.67;;;2.50;98.60;;;;;;10472516;28;20262;-83
2022/12/12 02:12:51;;;;;;;18.10;16.20;;;2.50;99.40;;;;;;10466478;28;20723;-84
2022/12/12 02:18:03;;;;;;;16.93;15.07;;;2.50;98.60;;;;;;10511427;28;20209;-82
2022/12/12 02:23:51;;;;;;;17.07;15.27;;;2.40;98.10;;;;;;10426219;28;20291;-83
2022/12/12 02:29:25;;;;;;;19.23;17.23;;;2.30;97.80;;;;;;10442029;28;20214;-83
2022/12/12 02:34:36;;;;;;;30.63;20.37;;;2.20;98.20;;;;;;10442568;28;20276;-83
2022/12/12 02:39:46;;;;;;;31.87;21.27;;;2.00;98.20;;;;;;10470502;28;20208;-83
2022/12/12 02:44:54;;;;;;;65.77;35.20;;;1.90;98.50;;;;;;10488966;28;20262;-84
2022/12/12 02:50:04;;;;;;;21.93;17.40;;;1.80;98.70;;;;;;10467627;28;20602;-82
2022/12/12 02:55:07;;;;;;;19.57;15.57;;;1.80;98.00;;;;;;10484494;28;20231;-84
2022/12/12 03:00:12;;;;;;;19.13;17.10;;;1.80;97.80;;;;;;10472563;28;20264;-80
2022/12/12 03:10:57;;;;;;;21.73;18.80;;;1.60;97.90;;;;;;10474085;28;20292;-81
2022/12/12 03:16:11;;;;;;;21.87;19.53;;;1.40;97.80;;;;;;10468188;28;20243;-81
2022/12/12 03:21:19;;;;;;;24.47;21.00;;;1.30;98.10;;;;;;10444002;28;20617;-81
2022/12/12 03:26:26;;;;;;;23.37;20.00;;;1.20;98.30;;;;;;10451673;28;20217;-80
2022/12/12 03:31:31;;;;;;;25.53;21.80;;;1.20;99.00;;;;;;10444841;28;20239;-82
2022/12/12 03:36:39;;;;;;;26.50;22.30;;;1.10;99.20;;;;;;10451760;28;20599;-79
2022/12/12 03:41:45;;;;;;;27.60;23.70;;;1.20;99.90;;;;;;10446001;28;20275;-82
2022/12/12 03:46:52;;;;;;;29.30;23.57;;;1.30;99.90;;;;;;10442944;28;20238;-82
2022/12/12 03:52:01;;;;;;;27.73;23.97;;;1.30;99.10;;;;;;10480105;28;20203;-80
2022/12/12 03:57:09;;;;;;;30.70;25.07;;;1.40;99.10;;;;;;10481762;28;20201;-80
2022/12/12 04:02:18;;;;;;;26.67;22.87;;;1.40;99.90;;;;;;10482965;28;20222;-81
2022/12/12 04:07:25;;;;;;;25.43;22.40;;;1.40;98.60;;;;;;10486416;28;20201;-80
2022/12/12 04:18:08;;;;;;;26.73;23.93;;;1.20;98.30;;;;;;10474261;28;20250;-83
2022/12/12 04:23:21;;;;;;;29.87;24.00;;;1.10;98.80;;;;;;10469938;28;20255;-81
2022/12/12 04:28:27;;;;;;;27.20;23.50;;;1.00;99.30;;;;;;10498718;28;20208;-83
2022/12/12 04:33:37;;;;;;;28.60;25.10;;;1.00;98.90;;;;;;10476721;28;20223;-84
2022/12/12 04:38:47;;;;;;;28.80;24.43;;;1.00;99.20;;;;;;10458243;28;20308;-83
2022/12/12 04:43:51;;;;;;;33.07;26.87;;;1.00;99.40;;;;;;10488683;28;20224;-83
2022/12/12 04:48:57;;;;;;;28.60;25.57;;;1.00;99.90;;;;;;10448679;28;20198;-84
2022/12/12 04:54:05;;;;;;;34.47;28.43;;;1.20;99.90;;;;;;10455229;28;20608;-83
2022/12/12 04:59:08;;;;;;;30.30;27.00;;;1.30;99.90;;;;;;10486432;28;20223;-84
2022/12/12 05:04:17;;;;;;;34.73;29.30;;;1.50;99.90;;;;;;10455919;28;20837;-84
2022/12/12 05:09:20;;;;;;;38.70;31.10;;;1.70;99.90;;;;;;10460230;28;20197;-83
2022/12/12 05:14:23;;;;;;;35.00;28.73;;;1.90;99.90;;;;;;10482147;28;20252;-82
2022/12/12 05:19:25;;;;;;;33.17;28.00;;;2.00;99.90;;;;;;10462073;28;20741;-83
2022/12/12 05:24:31;;;;;;;32.70;28.50;;;2.10;99.90;;;;;;10475829;28;20234;-83
2022/12/12 05:29:35;;;;;;;32.53;28.83;;;2.20;99.80;;;;;;10473901;28;20254;-82
2022/12/12 05:34:39;;;;;;;29.60;26.37;;;2.30;99.60;;;;;;10491866;28;20544;-82
2022/12/12 05:39:43;;;;;;;28.97;25.97;;;2.40;99.80;;;;;;10475626;28;20249;-83
2022/12/12 05:44:45;;;;;;;29.60;26.40;;;2.40;99.10;;;;;;10488782;28;20422;-84
2022/12/12 05:49:49;;;;;;;30.27;26.70;;;2.40;99.00;;;;;;10471186;28;20198;-83
2022/12/12 05:54:53;;;;;;;33.80;28.20;;;2.50;99.00;;;;;;10456702;28;20575;-82
2022/12/12 05:59:55;;;;;;;32.00;27.50;;;2.50;99.20;;;;;;10501269;28;20204;-82
2022/12/12 06:04:57;;;;;;;29.63;26.33;;;2.50;99.00;;;;;;10475663;28;20308;-82
2022/12/12 06:10:00;;;;;;;30.77;27.57;;;2.50;98.90;;;;;;10476231;28;20554;-82
2022/12/12 06:15:02;;;;;;;33.23;28.87;;;2.50;99.00;;;;;;10475359;28;20217;-80
2022/12/12 06:20:06;;;;;;;32.23;28.13;;;2.50;98.50;;;;;;10451596;28;20248;-82
2022/12/12 06:25:10;;;;;;;32.00;28.50;;;2.50;99.00;;;;;;10452123;28;20225;-81
2022/12/12 06:30:13;;;;;;;34.10;28.97;;;2.60;99.20;;;;;;10482828;28;20193;-82
2022/12/12 06:35:15;;;;;;;32.30;28.13;;;2.70;99.00;;;;;;10476834;28;20213;-82
2022/12/12 06:40:19;;;;;;;30.77;26.70;;;2.70;98.70;;;;;;10471364;28;20315;-81
2022/12/12 06:45:21;;;;;;;29.97;26.70;;;2.70;98.50;;;;;;10492590;28;20225;-79
2022/12/12 06:50:23;;;;;;;33.97;30.13;;;2.70;99.30;;;;;;10449251;28;20222;-81
2022/12/12 06:55:26;;;;;;;32.90;27.90;;;2.80;99.00;;;;;;10451605;28;20221;-78
2022/12/12 07:00:28;;;;;;;30.73;27.23;;;2.80;99.00;;;;;;10491278;28;20275;-82
2022/12/12 07:05:31;;;;;;;32.00;26.47;;;2.90;98.70;;;;;;10501325;28;20228;-82
2022/12/12 07:10:35;;;;;;;33.13;27.87;;;2.90;98.30;;;;;;10483278;28;20727;-80
2022/12/12 07:15:42;;;;;;;30.37;27.17;;;2.80;98.00;;;;;;10513435;22;20319;-82
2022/12/12 07:20:45;;;;;;;31.67;27.57;;;2.70;97.60;;;;;;10491143;28;20699;-82
2022/12/12 07:25:49;;;;;;;31.80;28.07;;;2.70;98.10;;;;;;10469939;28;20299;-82
2022/12/12 07:30:51;;;;;;;31.40;28.00;;;2.70;97.70;;;;;;10468486;28;20231;-83
2022/12/12 07:35:58;;;;;;;34.37;29.47;;;2.70;98.60;;;;;;10485952;28;20216;-83
2022/12/12 07:41:05;;;;;;;32.03;28.63;;;2.70;98.00;;;;;;10470414;28;20228;-82
2022/12/12 07:46:09;;;;;;;29.47;26.37;;;2.80;98.50;;;;;;10452966;28;20723;-82
2022/12/12 07:51:11;;;;;;;33.87;27.83;;;2.90;99.00;;;;;;10470064;28;20654;-81
2022/12/12 07:56:16;;;;;;;32.30;28.90;;;2.90;97.70;;;;;;10465335;28;20579;-82
2022/12/12 08:01:20;;;;;;;34.80;28.30;;;2.90;98.40;;;;;;10484518;28;20224;-82
2022/12/12 08:06:23;;;;;;;33.33;27.77;;;3.00;98.30;;;;;;10486408;28;20303;-82
2022/12/12 08:11:27;;;;;;;30.10;26.90;;;3.00;98.10;;;;;;10502348;28;20268;-81
2022/12/12 08:16:29;;;;;;;31.43;25.70;;;3.00;98.40;;;;;;10484008;28;20259;-82
2022/12/12 08:21:32;;;;;;;29.83;25.83;;;3.10;98.20;;;;;;10502785;28;20217;-82
2022/12/12 08:26:35;;;;;;;29.30;25.83;;;3.20;98.60;;;;;;10464738;28;20250;-81
2022/12/12 08:31:38;;;;;;;30.30;27.00;;;3.20;97.70;;;;;;10482212;28;20670;-82
2022/12/12 08:36:40;;;;;;;29.07;25.70;;;3.20;97.50;;;;;;10487720;28;20220;-82
2022/12/12 08:41:46;;;;;;;28.43;25.43;;;3.20;97.60;;;;;;10481822;28;20227;-81
2022/12/12 08:46:49;;;;;;;29.67;26.57;;;3.20;98.20;;;;;;10459844;28;20568;-82
2022/12/12 08:51:51;;;;;;;29.70;26.10;;;3.20;97.90;;;;;;10469186;28;20215;-82
2022/12/12 08:56:55;;;;;;;28.50;23.50;;;3.30;97.70;;;;;;10499740;28;20223;-82
2022/12/12 09:01:57;;;;;;;27.20;24.20;;;3.30;96.50;;;;;;10477115;28;20421;-82
2022/12/12 09:06:59;;;;;;;27.63;24.63;;;3.30;97.00;;;;;;10470982;28;20220;-82
2022/12/12 09:12:03;;;;;;;29.30;26.10;;;3.30;97.20;;;;;;10442946;28;20605;-82
2022/12/12 09:17:05;;;;;;;29.93;26.60;;;3.40;98.00;;;;;;10482755;28;20613;-83
2022/12/12 09:22:08;;;;;;;27.13;24.30;;;3.50;97.80;;;;;;10443940;28;20219;-82
2022/12/12 09:27:11;;;;;;;29.77;25.47;;;3.50;97.10;;;;;;10460220;28;20284;-83
2022/12/12 09:32:13;;;;;;;27.60;24.70;;;3.60;97.70;;;;;;10447260;28;20279;-83
2022/12/12 09:37:15;;;;;;;27.00;24.17;;;3.70;98.00;;;;;;10463402;28;20235;-83
2022/12/12 09:42:23;;;;;;;26.47;23.67;;;3.80;96.90;;;;;;10446544;28;20230;-81
2022/12/12 09:47:34;;;;;;;25.70;23.00;;;3.80;97.10;;;;;;10440706;28;20196;-83
2022/12/12 09:52:37;;;;;;;26.47;23.47;;;3.90;96.80;;;;;;10486825;28;20263;-82
2022/12/12 09:57:49;;;;;;;28.97;24.20;;;3.90;96.40;;;;;;10444943;28;20201;-83
2022/12/12 10:03:05;;;;;;;29.53;24.80;;;4.00;97.20;;;;;;10459035;28;20747;-82
2022/12/12 10:08:17;;;;;;;26.80;23.90;;;4.00;97.30;;;;;;10444399;28;20889;-82
2022/12/12 10:13:25;;;;;;;28.73;24.90;;;4.10;97.00;;;;;;10481707;28;20249;-82
2022/12/12 10:18:31;;;;;;;39.30;33.50;;;4.20;96.80;;;;;;10439362;28;20197;-82
2022/12/12 10:23:39;;;;;;;28.03;25.00;;;4.20;96.70;;;;;;10470926;28;20255;-82
2022/12/12 10:28:44;;;;;;;25.77;22.00;;;4.30;97.30;;;;;;10461111;28;20204;-82
2022/12/12 10:34:01;;;;;;;24.57;22.07;;;4.40;97.20;;;;;;10479169;28;20251;-83
2022/12/12 10:39:14;;;;;;;24.90;21.80;;;4.40;96.90;;;;;;10482163;28;20717;-82
2022/12/12 10:44:39;;;;;;;25.53;21.70;;;4.40;96.40;;;;;;10458693;28;20624;-82
2022/12/12 10:49:41;;;;;;;25.33;22.70;;;4.30;96.50;;;;;;10492385;28;20644;-81
2022/12/12 10:54:47;;;;;;;27.93;23.60;;;4.20;95.90;;;;;;10445670;28;20220;-82
2022/12/12 10:59:53;;;;;;;26.77;23.83;;;4.10;96.70;;;;;;10432211;28;20616;-81
2022/12/12 11:05:14;;;;;;;26.30;23.50;;;4.00;97.20;;;;;;10446291;28;20753;-82
2022/12/12 11:10:26;;;;;;;28.80;24.23;;;3.90;96.70;;;;;;10483935;28;20267;-82
2022/12/12 11:15:37;;;;;;;26.13;23.33;;;3.80;96.70;;;;;;10457500;28;20260;-82
2022/12/12 11:20:44;;;;;;;24.87;22.03;;;3.80;96.60;;;;;;10478949;28;20216;-82
2022/12/12 11:25:53;;;;;;;25.33;22.73;;;3.70;97.30;;;;;;10451779;28;20240;-81
2022/12/12 11:30:57;;;;;;;26.83;21.20;;;3.70;97.00;;;;;;10485265;28;20205;-82
2022/12/12 11:36:02;;;;;;;24.87;22.07;;;3.70;96.90;;;;;;10469151;28;20586;-82
2022/12/12 11:41:07;;;;;;;20.57;18.40;;;3.70;97.10;;;;;;10485215;28;20240;-81
2022/12/12 11:46:19;;;;;;;20.60;18.37;;;3.70;97.30;;;;;;10500752;28;20697;-82
2022/12/12 11:51:32;;;;;;;20.60;17.40;;;3.80;96.60;;;;;;10484649;28;20199;-82
2022/12/12 11:56:43;;;;;;;19.43;17.33;;;3.80;96.20;;;;;;10482871;28;20232;-82
2022/12/12 12:01:54;;;;;;;16.80;15.10;;;3.80;96.40;;;;;;10443578;28;20225;-81
2022/12/12 12:07:10;;;;;;;18.00;16.20;;;3.80;95.20;;;;;;10481334;28;20231;-82
2022/12/12 12:12:17;;;;;;;19.40;15.10;;;3.80;95.60;;;;;;10466595;28;20286;-82
2022/12/12 12:17:32;;;;;;;19.20;17.07;;;3.80;95.70;;;;;;10466318;28;20192;-82
2022/12/12 12:22:47;;;;;;;18.40;16.50;;;3.90;96.40;;;;;;10468489;28;20723;-82
2022/12/12 12:28:01;;;;;;;16.43;13.60;;;3.90;96.00;;;;;;10464681;28;20668;-82
2022/12/12 12:33:19;;;;;;;18.67;16.40;;;4.00;96.00;;;;;;10463192;28;20221;-82
2022/12/12 12:38:33;;;;;;;23.93;19.33;;;4.00;96.20;;;;;;10485082;28;20204;-82
2022/12/12 12:43:47;;;;;;;23.80;20.23;;;4.10;96.10;;;;;;10466066;28;20695;-82
2022/12/12 12:48:54;;;;;;;23.17;20.43;;;4.20;95.90;;;;;;10464340;28;20565;-82
2022/12/12 12:54:02;;;;;;;20.93;18.67;;;4.20;96.30;;;;;;10483882;28;20239;-82
2022/12/12 12:59:09;;;;;;;18.70;16.70;;;4.20;95.90;;;;;;10483442;28;20624;-80
2022/12/12 13:04:18;;;;;;;20.30;18.10;;;4.20;93.80;;;;;;10500523;28;20696;-79
2022/12/12 13:09:32;;;;;;;20.33;18.30;;;4.10;94.60;;;;;;10482031;28;20250;-80
2022/12/12 13:14:46;;;;;;;19.23;17.20;;;4.00;95.30;;;;;;10544154;22;20227;-79
2022/12/12 13:19:52;;;;;;;21.00;18.00;;;4.00;94.60;;;;;;10527136;28;20226;-79
2022/12/12 13:25:02;;;;;;;21.87;17.53;;;4.00;94.90;;;;;;10577746;28;20215;-79
2022/12/12 13:30:13;;;;;;;18.47;16.57;;;4.00;95.30;;;;;;10556271;28;20638;-82
2022/12/12 13:35:24;;;;;;;21.30;18.67;;;4.00;93.80;;;;;;10543831;28;20583;-78
2022/12/12 13:40:29;;;;;;;21.37;19.17;;;4.00;95.50;;;;;;10530947;28;20387;-79
2022/12/12 13:45:45;;;;;;;25.03;21.53;;;4.00;95.80;;;;;;10543704;28;20220;-77
2022/12/12 13:51:27;;;;;;;23.33;20.83;;;4.00;96.00;;;;;;10533949;28;20281;-81
2022/12/12 13:56:42;;;;;;;23.17;20.67;;;4.00;94.90;;;;;;10547265;28;20594;-78
2022/12/12 14:01:44;;;;;;;27.30;21.50;;;4.00;96.20;;;;;;10541267;28;20630;-80
2022/12/12 14:06:57;;;;;;;26.20;22.70;;;3.90;96.30;;;;;;10528659;28;20637;-79
2022/12/12 14:12:05;;;;;;;26.90;22.93;;;3.90;96.30;;;;;;10537929;28;20636;-80
2022/12/12 14:17:20;;;;;;;28.63;24.77;;;3.90;97.00;;;;;;10538955;28;20227;-80
2022/12/12 14:22:27;;;;;;;30.03;24.67;;;3.90;96.70;;;;;;10566065;28;20670;-80
2022/12/12 14:28:06;;;;;;;27.80;24.40;;;3.90;96.30;;;;;;10544312;28;20195;-79
2022/12/12 14:33:42;;;;;;;30.77;24.90;;;3.80;96.80;;;;;;10537064;28;20221;-78
2022/12/12 14:38:54;;;;;;;30.70;24.50;;;3.80;96.40;;;;;;10563194;28;20200;-81
2022/12/12 14:44:00;;;;;;;28.20;25.00;;;3.70;97.30;;;;;;10565989;28;20228;-81
2022/12/12 14:49:03;;;;;;;28.07;25.00;;;3.70;97.10;;;;;;10554212;28;20196;-82
2022/12/12 14:54:15;;;;;;;29.10;24.93;;;3.80;97.40;;;;;;10551081;28;20211;-79
2022/12/12 14:59:22;;;;;;;30.00;25.50;;;3.80;97.40;;;;;;10532143;28;20192;-80
2022/12/12 15:04:27;;;;;;;27.13;23.73;;;3.90;97.20;;;;;;10557735;28;20287;-83
2022/12/12 15:09:32;;;;;;;29.87;25.17;;;3.90;97.90;;;;;;10564696;28;20278;-83
2022/12/12 15:14:34;;;;;;;27.30;24.33;;;3.90;97.80;;;;;;10563757;28;20308;-84
2022/12/12 15:19:40;;;;;;;27.37;24.40;;;3.90;97.90;;;;;;10543160;28;20195;-84
2022/12/12 15:24:47;;;;;;;29.73;26.00;;;3.90;97.60;;;;;;10561848;28;20231;-82
2022/12/12 15:29:49;;;;;;;27.87;24.97;;;3.80;97.00;;;;;;10562402;28;20357;-83
2022/12/12 15:35:01;;;;;;;26.10;23.30;;;3.70;96.80;;;;;;10542792;28;20242;-82
2022/12/12 15:40:18;;;;;;;30.80;25.60;;;3.60;96.50;;;;;;10558705;28;20201;-83
2022/12/12 15:45:27;;;;;;;27.90;24.73;;;3.40;97.20;;;;;;10558068;28;20310;-84
2022/12/12 15:50:36;;;;;;;28.87;24.90;;;3.30;97.30;;;;;;10552143;28;20200;-84
2022/12/12 15:55:39;;;;;;;27.50;23.83;;;3.20;97.20;;;;;;10518060;28;20221;-82
2022/12/12 16:00:42;;;;;;;27.17;23.63;;;3.10;97.20;;;;;;10557186;28;20199;-84
2022/12/12 16:05:44;;;;;;;28.57;25.60;;;3.00;97.70;;;;;;10555577;28;20458;-84
2022/12/12 16:10:53;;;;;;;29.23;25.17;;;2.90;96.80;;;;;;10550287;28;20288;-84
2022/12/12 16:15:55;;;;;;;29.23;25.00;;;2.80;97.10;;;;;;10579550;28;20927;-83
2022/12/12 16:20:57;;;;;;;26.77;23.93;;;2.70;97.00;;;;;;10570210;28;20218;-82
2022/12/12 16:26:01;;;;;;;27.53;24.60;;;2.60;97.70;;;;;;10571027;28;20279;-80
2022/12/12 16:31:06;;;;;;;25.53;23.03;;;2.50;97.10;;;;;;10592092;28;20199;-82
2022/12/12 16:36:13;;;;;;;25.67;22.80;;;2.50;97.40;;;;;;10538554;28;20223;-84
2022/12/12 16:41:18;;;;;;;26.70;23.03;;;2.40;97.30;;;;;;10541075;28;20239;-83
2022/12/12 16:46:22;;;;;;;25.40;22.57;;;2.30;98.00;;;;;;10563398;28;20211;-83
2022/12/12 16:51:27;;;;;;;25.17;22.47;;;2.30;98.10;;;;;;10521285;28;20196;-83
2022/12/12 16:56:51;;;;;;;22.83;20.53;;;2.40;98.00;;;;;;10534755;28;20563;-81
2022/12/12 17:01:55;;;;;;;24.50;21.20;;;2.40;97.90;;;;;;10567119;28;20683;-84
2022/12/12 17:07:13;;;;;;;25.20;21.83;;;2.40;97.40;;;;;;10585248;28;20223;-84
2022/12/12 17:12:22;;;;;;;26.03;23.23;;;2.30;97.60;;;;;;10550868;28;20195;-83
2022/12/12 17:17:24;;;;;;;46.63;33.10;;;2.30;97.50;;;;;;10586236;28;20290;-83
2022/12/12 17:22:26;;;;;;;45.13;36.57;;;2.30;97.90;;;;;;10543875;28;20690;-81
2022/12/12 17:27:30;;;;;;;32.13;28.30;;;2.30;98.40;;;;;;10582423;28;20205;-83
2022/12/12 17:32:32;;;;;;;37.03;30.87;;;2.30;97.60;;;;;;10544838;28;20200;-83
2022/12/12 17:37:34;;;;;;;33.20;28.67;;;2.30;96.70;;;;;;10550253;28;20720;-83
2022/12/12 17:42:38;;;;;;;27.77;24.77;;;2.20;97.20;;;;;;10576591;28;20215;-84
2022/12/12 17:47:40;;;;;;;34.17;29.23;;;2.20;97.20;;;;;;10565160;28;20230;-83
2022/12/12 17:52:44;;;;;;;33.00;27.53;;;2.20;97.70;;;;;;10557467;28;20215;-80
2022/12/12 17:57:47;;;;;;;29.77;25.97;;;2.10;97.80;;;;;;10541338;28;20237;-79
2022/12/12 18:02:49;;;;;;;29.00;25.03;;;2.10;98.30;;;;;;10585187;28;20670;-79
2022/12/12 18:07:51;;;;;;;19.40;17.30;;;2.10;97.80;;;;;;10529725;28;20208;-79
2022/12/12 18:12:54;;;;;;;28.40;24.47;;;2.10;97.30;;;;;;10533122;28;20261;-79
2022/12/12 18:17:56;;;;;;;30.47;24.63;;;2.20;97.70;;;;;;10576349;28;20225;-79
2022/12/12 18:22:59;;;;;;;27.90;24.87;;;2.20;97.70;;;;;;10528003;28;20250;-79
2022/12/12 18:28:02;;;;;;;26.70;23.37;;;2.20;97.70;;;;;;10573171;28;20199;-80
2022/12/12 18:33:04;;;;;;;26.17;22.20;;;2.10;98.10;;;;;;10553994;28;20712;-80
2022/12/12 18:38:06;;;;;;;28.53;22.50;;;2.10;96.70;;;;;;10565092;28;20221;-81
2022/12/12 18:43:09;;;;;;;24.93;22.43;;;2.00;96.30;;;;;;10535383;28;20296;-79
2022/12/12 18:48:11;;;;;;;27.10;21.20;;;1.90;96.90;;;;;;10557507;28;20203;-82
2022/12/12 18:53:14;;;;;;;24.23;21.47;;;1.90;96.70;;;;;;10529351;28;20227;-81
2022/12/12 18:58:18;;;;;;;24.43;21.10;;;1.80;96.20;;;;;;10537105;28;20582;-80
2022/12/12 19:03:20;;;;;;;23.03;20.47;;;1.70;96.30;;;;;;10558470;28;20233;-80
2022/12/12 19:08:23;;;;;;;23.67;20.83;;;1.60;96.10;;;;;;10536246;28;20786;-81
2022/12/12 19:13:27;;;;;;;23.97;21.47;;;1.50;95.90;;;;;;10562020;28;20605;-80
2022/12/12 19:18:29;;;;;;;25.70;21.57;;;1.40;96.50;;;;;;10516398;28;20253;-80
2022/12/12 19:23:35;;;;;;;26.33;23.50;;;1.40;96.60;;;;;;10566014;28;20254;-80
2022/12/12 19:28:42;;;;;;;27.40;24.37;;;1.30;96.30;;;;;;10520023;28;20210;-81
2022/12/12 19:33:48;;;;;;;26.67;22.43;;;1.30;96.40;;;;;;10506727;28;20335;-82
2022/12/12 19:38:51;;;;;;;24.50;21.90;;;1.20;96.90;;;;;;10541001;28;20671;-81
2022/12/12 19:43:56;;;;;;;32.13;26.30;;;1.20;96.60;;;;;;10560277;28;20280;-79
2022/12/12 19:48:59;;;;;;;28.10;24.77;;;1.30;96.80;;;;;;10562996;28;20229;-82
2022/12/12 19:54:05;;;;;;;44.60;34.53;;;1.20;96.50;;;;;;10578458;28;20222;-80
2022/12/12 19:59:11;;;;;;;37.00;30.53;;;1.20;97.00;;;;;;10544646;28;20271;-79
2022/12/12 20:04:16;;;;;;;28.43;25.30;;;1.20;96.20;;;;;;10521825;28;20219;-81
2022/12/12 20:09:20;;;;;;;26.77;23.83;;;1.20;97.00;;;;;;10541852;28;20199;-80
2022/12/12 20:14:26;;;;;;;27.87;24.30;;;1.10;96.60;;;;;;10534460;28;20227;-82
2022/12/12 20:19:29;;;;;;;27.07;24.17;;;1.10;96.20;;;;;;10510964;28;20196;-80
2022/12/12 20:24:33;;;;;;;27.77;23.47;;;1.00;95.80;;;;;;10574742;28;20694;-82
2022/12/12 20:29:36;;;;;;;26.83;23.93;;;0.90;95.80;;;;;;10562046;28;20188;-83
2022/12/12 20:34:38;;;;;;;25.50;22.70;;;0.80;95.40;;;;;;10555531;28;20258;-84
2022/12/12 20:39:45;;;;;;;25.73;23.13;;;0.70;95.60;;;;;;10580840;28;20195;-84
2022/12/12 20:44:49;;;;;;;28.93;25.87;;;0.60;95.30;;;;;;10570230;28;20289;-84
2022/12/12 20:49:51;;;;;;;25.87;23.03;;;0.50;96.00;;;;;;10580630;28;20199;-84
2022/12/12 20:54:56;;;;;;;26.83;22.53;;;0.40;95.80;;;;;;10589202;28;20294;-84
2022/12/12 21:00:03;;;;;;;31.40;25.67;;;0.40;95.10;;;;;;10550223;28;20196;-82
2022/12/12 21:05:07;;;;;;;26.10;23.30;;;0.20;95.80;;;;;;10557591;28;20747;-83
2022/12/12 21:10:09;;;;;;;34.10;28.57;;;0.20;96.10;;;;;;10524149;28;20287;-83
2022/12/12 21:15:13;;;;;;;29.10;23.50;;;0.30;96.10;;;;;;10512672;28;20232;-81
2022/12/12 21:20:15;;;;;;;39.27;31.73;;;0.30;96.60;;;;;;10532447;28;20222;-83
2022/12/12 21:25:20;;;;;;;29.77;25.30;;;0.30;96.10;;;;;;10532499;28;20211;-83
2022/12/12 21:30:24;;;;;;;26.97;22.20;;;0.40;96.20;;;;;;10544622;28;20199;-83
2022/12/12 21:35:26;;;;;;;25.47;22.50;;;0.40;95.90;;;;;;10536416;28;20207;-80
2022/12/12 21:40:29;;;;;;;30.53;23.10;;;0.40;95.50;;;;;;10513805;28;20217;-83
2022/12/12 21:45:32;;;;;;;26.87;22.00;;;0.40;96.10;;;;;;10528210;28;20262;-83
2022/12/12 21:50:34;;;;;;;25.93;21.93;;;0.40;95.60;;;;;;10548568;28;20651;-83
2022/12/12 21:55:39;;;;;;;27.00;21.43;;;0.40;96.20;;;;;;10505947;28;20595;-81
2022/12/12 22:00:43;;;;;;;29.03;23.67;;;0.50;95.20;;;;;;10520942;28;20621;-81
2022/12/12 22:05:45;;;;;;;26.40;21.37;;;0.40;95.20;;;;;;10543240;28;20232;-83
2022/12/12 22:10:48;;;;;;;27.57;22.33;;;0.30;95.50;;;;;;10519096;28;20264;-79
2022/12/12 22:15:58;;;;;;;24.83;22.17;;;0.30;95.60;;;;;;10529140;28;20224;-79
2022/12/12 22:21:06;;;;;;;23.03;20.27;;;0.30;96.00;;;;;;10506664;28;20261;-81
2022/12/12 22:26:19;;;;;;;25.70;21.87;;;0.30;96.60;;;;;;10522126;28;20216;-83
2022/12/12 22:31:25;;;;;;;28.87;23.10;;;0.30;96.10;;;;;;10526235;28;20188;-83
2022/12/12 22:36:30;;;;;;;22.60;20.20;;;0.40;96.30;;;;;;10511789;28;20311;-83
2022/12/12 22:41:33;;;;;;;21.27;19.00;;;0.40;96.50;;;;;;10528778;28;20429;-82
2022/12/12 22:46:36;;;;;;;21.90;19.43;;;0.40;95.80;;;;;;10510819;28;20227;-83
2022/12/12 22:51:39;;;;;;;19.33;17.30;;;0.50;95.60;;;;;;10514350;28;20247;-83
2022/12/12 22:56:41;;;;;;;20.93;17.57;;;0.40;95.20;;;;;;10494023;28;20215;-81
2022/12/12 23:01:47;;;;;;;22.20;18.03;;;0.40;95.20;;;;;;10518683;28;20225;-82
2022/12/12 23:06:49;;;;;;;21.30;19.07;;;0.40;96.00;;;;;;10539528;28;20623;-81
2022/12/12 23:11:54;;;;;;;21.30;19.00;;;0.40;96.10;;;;;;10526528;28;20210;-82
2022/12/12 23:17:01;;;;;;;20.20;18.13;;;0.40;94.90;;;;;;10525389;28;20667;-82
2022/12/12 23:22:07;;;;;;;21.27;18.93;;;0.40;95.30;;;;;;10507533;28;20208;-82
2022/12/12 23:27:09;;;;;;;20.90;18.13;;;0.40;95.40;;;;;;10529462;28;20663;-81
2022/12/12 23:32:18;;;;;;;26.17;18.93;;;0.40;95.50;;;;;;10512403;28;20278;-83
2022/12/12 23:37:22;;;;;;;22.10;19.80;;;0.30;95.20;;;;;;10493079;28;20306;-81
2022/12/12 23:42:24;;;;;;;26.87;21.53;;;0.30;95.10;;;;;;10510595;28;20659;-80
2022/12/12 23:47:28;;;;;;;23.50;21.00;;;0.30;94.40;;;;;;10524155;28;20230;-83
2022/12/12 23:52:30;;;;;;;25.30;21.37;;;0.20;95.10;;;;;;10500632;28;20214;-80
2022/12/12 23:57:32;;;;;;;22.43;20.10;;;0.10;95.10;;;;;;10543059;28;20726;-79
